createdAt,value
2018-09-11T00:00:42.669Z,4.17
2018-09-11T00:03:10.475Z,3.90
2018-09-11T00:05:38.347Z,5.17
2018-09-11T00:08:06.244Z,5.43
2018-09-11T00:10:34.045Z,5.17
2018-09-11T00:13:01.920Z,5.03
2018-09-11T00:15:29.752Z,4.80
2018-09-11T00:17:57.631Z,5.80
2018-09-11T00:20:25.590Z,4.80
2018-09-11T00:22:53.463Z,6.10
2018-09-11T00:25:21.325Z,5.23
2018-09-11T00:27:49.235Z,6.03
2018-09-11T00:30:17.059Z,5.57
2018-09-11T00:32:44.915Z,4.30
2018-09-11T00:35:12.747Z,5.10
2018-09-11T00:37:40.591Z,6.33
2018-09-11T00:40:08.559Z,5.83
2018-09-11T00:42:36.392Z,5.37
2018-09-11T00:45:04.747Z,5.80
2018-09-11T00:47:32.618Z,5.37
2018-09-11T00:50:00.409Z,4.67
2018-09-11T00:52:28.355Z,5.53
2018-09-11T00:54:56.254Z,5.20
2018-09-11T00:57:24.096Z,5.03
2018-09-11T00:59:51.995Z,5.43
2018-09-11T01:02:19.801Z,6.03
2018-09-11T01:04:47.687Z,6.33
2018-09-11T01:07:15.534Z,5.17
2018-09-11T01:09:43.373Z,5.30
2018-09-11T01:12:11.201Z,5.30
2018-09-11T01:14:39.210Z,4.90
2018-09-11T01:17:07.039Z,3.50
2018-09-11T01:19:34.944Z,4.33
2018-09-11T01:22:02.800Z,4.20
2018-09-11T01:24:30.634Z,3.90
2018-09-11T01:26:58.541Z,4.57
2018-09-11T01:29:26.379Z,4.40
2018-09-11T01:31:54.139Z,3.97
2018-09-11T01:34:21.971Z,4.40
2018-09-11T01:36:49.839Z,4.07
2018-09-11T01:39:17.731Z,3.73
2018-09-11T01:41:45.661Z,4.37
2018-09-11T01:44:13.532Z,4.53
2018-09-11T01:46:41.393Z,4.63
2018-09-11T01:49:09.240Z,4.00
2018-09-11T01:51:37.011Z,4.30
2018-09-11T01:54:05.120Z,5.10
2018-09-11T01:56:32.915Z,6.30
2018-09-11T01:59:00.721Z,5.50
2018-09-11T02:01:28.551Z,6.37
2018-09-11T02:03:56.427Z,6.03
2018-09-11T02:06:24.239Z,6.03
2018-09-11T02:08:52.199Z,6.30
2018-09-11T02:11:20.008Z,5.73
2018-09-11T02:13:47.828Z,6.10
2018-09-11T02:16:15.688Z,6.40
2018-09-11T02:18:43.540Z,6.33
2018-09-11T02:21:11.335Z,6.07
2018-09-11T02:23:39.208Z,6.27
2018-09-11T02:26:07.067Z,6.13
2018-09-11T02:28:34.922Z,5.97
2018-09-11T02:31:02.752Z,5.97
2018-09-11T02:33:30.602Z,6.50
2018-09-11T02:35:58.415Z,5.87
2018-09-11T02:38:26.253Z,6.03
2018-09-11T02:40:54.086Z,7.07
2018-09-11T02:43:22.003Z,6.03
2018-09-11T02:45:50.324Z,6.17
2018-09-11T02:48:18.183Z,6.37
2018-09-11T02:50:46.044Z,6.37
2018-09-11T02:53:13.884Z,6.40
2018-09-11T02:55:41.736Z,6.70
2018-09-11T02:58:09.606Z,6.73
2018-09-11T03:00:37.407Z,6.50
2018-09-11T03:03:05.287Z,6.33
2018-09-11T03:05:33.159Z,6.70
2018-09-11T03:08:00.880Z,7.40
2018-09-11T03:10:28.700Z,6.60
2018-09-11T03:12:56.634Z,7.13
2018-09-11T03:15:24.488Z,6.97
2018-09-11T03:17:52.316Z,7.03
2018-09-11T03:20:20.132Z,7.00
2018-09-11T03:22:47.948Z,6.90
2018-09-11T03:25:15.796Z,6.27
2018-09-11T03:27:43.615Z,7.20
2018-09-11T03:30:11.433Z,7.00
2018-09-11T03:32:39.361Z,7.27
2018-09-11T03:35:07.279Z,7.37
2018-09-11T03:37:35.161Z,6.90
2018-09-11T03:40:03.371Z,7.40
2018-09-11T03:42:31.140Z,7.20
2018-09-11T03:44:58.919Z,7.30
2018-09-11T03:47:26.809Z,7.90
2018-09-11T03:49:54.655Z,7.67
2018-09-11T03:52:22.551Z,7.90
2018-09-11T03:54:50.340Z,7.73
2018-09-11T03:57:18.172Z,8.27
2018-09-11T03:59:45.956Z,7.23
2018-09-11T04:02:13.821Z,7.60
2018-09-11T04:04:41.651Z,6.17
2018-09-11T04:07:09.489Z,5.90
2018-09-11T04:09:37.339Z,7.37
2018-09-11T04:12:05.467Z,7.13
2018-09-11T04:14:33.267Z,7.10
2018-09-11T04:17:01.074Z,7.57
2018-09-11T04:19:28.893Z,7.37
2018-09-11T04:21:56.689Z,7.93
2018-09-11T04:24:24.456Z,8.03
2018-09-11T04:26:52.295Z,9.17
2018-09-11T04:29:20.095Z,8.67
2018-09-11T04:31:47.973Z,8.37
2018-09-11T04:34:15.792Z,8.27
2018-09-11T04:36:43.656Z,8.43
2018-09-11T04:39:11.519Z,7.87
2018-09-11T04:41:39.339Z,8.87
2018-09-11T04:44:07.264Z,7.90
2018-09-11T04:46:35.172Z,8.43
2018-09-11T04:49:02.994Z,8.13
2018-09-11T04:51:30.909Z,8.07
2018-09-11T04:53:58.791Z,9.83
2018-09-11T04:56:26.691Z,10.07
2018-09-11T04:58:55.128Z,8.50
2018-09-11T05:01:22.999Z,9.33
2018-09-11T05:03:51.072Z,10.57
2018-09-11T05:06:18.976Z,8.50
2018-09-11T05:08:47.082Z,9.63
2018-09-11T05:11:14.974Z,9.73
2018-09-11T05:13:42.865Z,9.07
2018-09-11T05:16:11.793Z,9.20
2018-09-11T05:18:40.028Z,9.00
2018-09-11T05:21:09.012Z,9.27
2018-09-11T05:23:37.209Z,8.87
2018-09-11T05:26:05.460Z,9.20
2018-09-11T05:28:36.674Z,9.30
2018-09-11T05:31:04.771Z,9.73
2018-09-11T05:33:34.290Z,8.97
2018-09-11T05:36:02.104Z,9.53
2018-09-11T05:38:30.136Z,9.17
2018-09-11T05:40:58.208Z,9.67
2018-09-11T05:43:26.215Z,9.13
2018-09-11T05:45:54.218Z,8.33
2018-09-11T05:48:22.079Z,6.83
2018-09-11T05:50:50.276Z,9.90
2018-09-11T05:53:18.640Z,10.87
2018-09-11T05:55:46.487Z,11.53
2018-09-11T05:58:14.279Z,11.10
2018-09-11T06:00:42.382Z,10.37
2018-09-11T06:03:10.312Z,9.07
2018-09-11T06:05:38.199Z,8.60
2018-09-11T06:08:06.005Z,7.77
2018-09-11T06:10:33.974Z,7.83
2018-09-11T06:13:05.299Z,9.57
2018-09-11T06:15:33.267Z,8.53
2018-09-11T06:18:01.153Z,7.57
2018-09-11T06:20:29.000Z,5.93
2018-09-11T06:22:56.831Z,7.20
2018-09-11T06:25:24.629Z,6.97
2018-09-11T06:27:52.451Z,6.40
2018-09-11T06:30:20.477Z,7.43
2018-09-11T06:32:48.374Z,7.57
2018-09-11T06:35:16.612Z,6.97
2018-09-11T06:37:44.455Z,5.80
2018-09-11T06:40:12.242Z,6.77
2018-09-11T06:42:40.023Z,6.03
2018-09-11T06:45:07.932Z,5.87
2018-09-11T06:47:35.827Z,5.50
2018-09-11T06:50:03.784Z,5.93
2018-09-11T06:52:31.566Z,6.17
2018-09-11T06:54:59.383Z,5.77
2018-09-11T06:57:27.256Z,5.20
2018-09-11T06:59:55.051Z,4.93
2018-09-11T07:02:22.878Z,4.47
2018-09-11T07:04:50.854Z,5.07
2018-09-11T07:07:18.664Z,4.63
2018-09-11T07:09:46.471Z,5.43
2018-09-11T07:12:14.264Z,5.53
2018-09-11T07:14:42.116Z,4.87
2018-09-11T07:17:09.864Z,4.20
2018-09-11T07:19:37.660Z,4.70
2018-09-11T07:22:05.808Z,4.03
2018-09-11T07:24:33.660Z,4.53
2018-09-11T07:27:01.476Z,4.13
2018-09-11T07:29:29.355Z,4.00
2018-09-11T07:31:57.181Z,4.30
2018-09-11T07:34:24.965Z,5.10
2018-09-11T07:36:52.745Z,5.00
2018-09-11T07:39:20.518Z,5.13
2018-09-11T07:41:48.343Z,5.70
2018-09-11T07:44:16.317Z,4.97
2018-09-11T07:46:44.095Z,5.40
2018-09-11T07:49:11.861Z,5.77
2018-09-11T07:51:39.743Z,4.80
2018-09-11T07:54:07.563Z,5.23
2018-09-11T07:56:35.375Z,6.10
2018-09-11T07:59:03.237Z,4.43
2018-09-11T08:01:31.111Z,4.47
2018-09-11T08:04:00.148Z,3.63
2018-09-11T08:06:27.990Z,3.73
2018-09-11T08:08:55.864Z,3.80
2018-09-11T08:11:23.744Z,3.73
2018-09-11T08:13:51.615Z,3.60
2018-09-11T08:16:19.469Z,3.53
2018-09-11T08:18:47.248Z,4.27
2018-09-11T08:21:15.064Z,3.73
2018-09-11T08:23:42.913Z,3.80
2018-09-11T08:26:10.758Z,3.40
2018-09-11T08:28:38.660Z,3.40
2018-09-11T08:31:06.533Z,3.67
2018-09-11T08:33:34.367Z,4.50
2018-09-11T08:36:02.216Z,3.40
2018-09-11T08:38:30.094Z,3.70
2018-09-11T08:40:57.931Z,3.80
2018-09-11T08:43:25.720Z,3.50
2018-09-11T08:45:53.591Z,3.13
2018-09-11T08:48:21.460Z,2.30
2018-09-11T08:50:49.293Z,2.63
2018-09-11T08:53:17.201Z,3.30
2018-09-11T08:55:45.176Z,2.90
2018-09-11T08:58:13.115Z,3.07
2018-09-11T09:00:40.896Z,3.07
2018-09-11T09:03:08.839Z,2.23
2018-09-11T09:05:36.609Z,2.30
2018-09-11T09:08:04.573Z,2.00
2018-09-11T09:10:32.443Z,2.10
2018-09-11T09:13:00.328Z,1.87
2018-09-11T09:15:28.214Z,1.93
2018-09-11T09:17:56.061Z,2.00
2018-09-11T09:20:23.923Z,2.30
2018-09-11T09:22:51.800Z,2.10
2018-09-11T09:25:19.580Z,2.00
2018-09-11T09:27:47.389Z,2.13
2018-09-11T09:30:15.321Z,2.03
2018-09-11T09:32:43.144Z,1.70
2018-09-11T09:35:10.940Z,1.80
2018-09-11T09:37:38.716Z,2.37
2018-09-11T09:40:06.595Z,2.30
2018-09-11T09:42:34.391Z,1.80
2018-09-11T09:45:02.316Z,2.60
2018-09-11T09:47:30.100Z,2.47
2018-09-11T09:49:57.968Z,2.03
2018-09-11T09:52:25.836Z,1.90
2018-09-11T09:54:53.654Z,2.07
2018-09-11T09:57:21.508Z,2.00
2018-09-11T09:59:49.348Z,2.30
2018-09-11T10:02:23.203Z,1.90
2018-09-11T10:04:51.844Z,2.10
2018-09-11T10:07:20.163Z,2.20
2018-09-11T10:09:47.972Z,2.27
2018-09-11T10:12:16.987Z,1.93
2018-09-11T10:14:44.892Z,1.93
2018-09-11T10:17:12.725Z,1.97
2018-09-11T10:19:40.680Z,2.03
2018-09-11T10:22:08.551Z,2.30
2018-09-11T10:24:36.417Z,2.10
2018-09-11T10:27:04.548Z,2.37
2018-09-11T10:29:32.467Z,2.17
2018-09-11T10:32:00.362Z,1.90
2018-09-11T10:34:28.219Z,2.20
2018-09-11T10:36:56.032Z,2.20
2018-09-11T10:39:23.858Z,1.77
2018-09-11T10:41:51.690Z,1.70
2018-09-11T10:44:19.591Z,2.23
2018-09-11T10:46:48.309Z,2.00
2018-09-11T10:49:16.178Z,2.23
2018-09-11T10:51:44.100Z,2.20
2018-09-11T10:54:11.956Z,2.07
2018-09-11T10:56:39.780Z,2.07
2018-09-11T10:59:07.540Z,1.30
2018-09-11T11:01:35.418Z,2.33
2018-09-11T11:04:03.284Z,1.87
2018-09-11T11:06:31.143Z,2.00
2018-09-11T11:08:58.964Z,2.20
2018-09-11T11:11:26.828Z,2.20
2018-09-11T11:13:54.655Z,1.80
2018-09-11T11:16:22.429Z,1.80
2018-09-11T11:18:50.323Z,1.73
2018-09-11T11:21:18.168Z,1.90
2018-09-11T11:23:46.083Z,1.67
2018-09-11T11:26:13.916Z,2.23
2018-09-11T11:28:41.775Z,1.90
2018-09-11T11:31:09.527Z,2.03
2018-09-11T11:33:37.332Z,1.53
2018-09-11T11:36:08.300Z,1.90
2018-09-11T11:38:36.211Z,1.90
2018-09-11T11:41:06.061Z,1.87
2018-09-11T11:43:33.852Z,2.00
2018-09-11T11:46:01.708Z,1.83
2018-09-11T11:48:30.336Z,2.17
2018-09-11T11:50:58.179Z,1.90
2018-09-11T11:53:26.012Z,1.70
2018-09-11T11:55:53.799Z,1.77
2018-09-11T11:58:21.616Z,1.97
2018-09-11T12:00:49.538Z,1.73
2018-09-11T12:03:17.360Z,2.00
2018-09-11T12:05:45.297Z,1.77
2018-09-11T12:08:13.124Z,1.90
2018-09-11T12:10:40.951Z,2.00
2018-09-11T12:13:08.701Z,1.80
2018-09-11T12:15:36.528Z,1.67
2018-09-11T12:18:04.360Z,2.13
2018-09-11T12:20:32.110Z,1.60
2018-09-11T12:23:00.029Z,2.13
2018-09-11T12:25:27.901Z,1.73
2018-09-11T12:27:55.647Z,1.80
2018-09-11T12:30:23.551Z,1.93
2018-09-11T12:32:51.351Z,1.97
2018-09-11T12:35:19.121Z,2.20
2018-09-11T12:37:46.972Z,1.80
2018-09-11T12:40:21.193Z,2.00
2018-09-11T12:42:49.169Z,2.40
2018-09-11T12:45:16.944Z,2.30
2018-09-11T12:47:45.165Z,2.27
2018-09-11T12:50:12.687Z,2.10
2018-09-11T12:52:40.619Z,2.00
2018-09-11T12:55:08.755Z,2.00
2018-09-11T12:57:36.667Z,2.07
2018-09-11T13:00:05.713Z,2.20
2018-09-11T13:02:33.620Z,2.20
2018-09-11T13:05:06.120Z,2.20
2018-09-11T13:07:34.165Z,1.83
2018-09-11T13:10:02.038Z,1.87
2018-09-11T13:12:29.915Z,2.23
2018-09-11T13:14:57.905Z,1.97
2018-09-11T13:17:25.700Z,2.20
2018-09-11T13:19:53.496Z,1.97
2018-09-11T13:22:21.356Z,2.10
2018-09-11T13:24:49.268Z,2.23
2018-09-11T13:27:17.404Z,2.10
2018-09-11T13:29:45.304Z,2.50
2018-09-11T13:32:13.111Z,2.10
2018-09-11T13:34:40.947Z,2.03
2018-09-11T13:37:08.789Z,2.23
2018-09-11T13:39:36.665Z,2.43
2018-09-11T13:42:04.511Z,1.80
2018-09-11T13:44:32.348Z,2.00
2018-09-11T13:47:01.379Z,1.87
2018-09-11T13:49:29.152Z,2.00
2018-09-11T13:51:56.943Z,2.20
2018-09-11T13:54:24.701Z,2.10
2018-09-11T13:56:52.568Z,2.00
2018-09-11T13:59:20.448Z,2.20
2018-09-11T14:01:48.349Z,2.13
2018-09-11T14:04:16.201Z,2.10
2018-09-11T14:06:43.998Z,2.10
2018-09-11T14:09:14.881Z,2.30
2018-09-11T14:11:43.867Z,2.10
2018-09-11T14:14:11.689Z,1.97
2018-09-11T14:16:40.592Z,2.20
2018-09-11T14:19:09.051Z,2.33
2018-09-11T14:21:36.948Z,2.27
2018-09-11T14:24:04.892Z,2.10
2018-09-11T14:26:32.768Z,2.13
2018-09-11T14:29:00.907Z,2.20
2018-09-11T14:31:28.751Z,2.17
2018-09-11T14:33:56.528Z,2.57
2018-09-11T14:36:25.403Z,2.63
2018-09-11T14:38:53.280Z,1.83
2018-09-11T14:41:23.579Z,2.30
2018-09-11T14:43:51.482Z,1.93
2018-09-11T14:46:19.377Z,1.90
2018-09-11T14:48:47.510Z,2.27
2018-09-11T14:51:15.463Z,2.00
2018-09-11T14:53:43.214Z,2.07
2018-09-11T14:56:11.041Z,2.40
2018-09-11T14:58:38.948Z,2.17
2018-09-11T15:01:06.895Z,1.90
2018-09-11T15:03:34.713Z,1.90
2018-09-11T15:06:02.539Z,2.33
2018-09-11T15:08:30.412Z,2.13
2018-09-11T15:11:01.699Z,2.57
2018-09-11T15:13:29.595Z,2.40
2018-09-11T15:15:57.431Z,2.10
2018-09-11T15:18:25.257Z,2.10
2018-09-11T15:20:53.142Z,2.27
2018-09-11T15:23:20.975Z,2.17
2018-09-11T15:25:48.757Z,2.10
2018-09-11T15:28:16.595Z,2.00
2018-09-11T15:30:44.519Z,2.40
2018-09-11T15:33:12.604Z,2.17
2018-09-11T15:35:40.601Z,2.37
2018-09-11T15:38:08.729Z,2.37
2018-09-11T15:40:36.581Z,1.97
2018-09-11T15:43:04.452Z,2.83
2018-09-11T15:45:32.203Z,2.10
2018-09-11T15:48:00.039Z,2.07
2018-09-11T15:50:27.943Z,2.13
2018-09-11T15:52:58.107Z,2.80
2018-09-11T15:55:25.897Z,2.87
2018-09-11T15:57:53.768Z,2.33
2018-09-11T16:00:21.539Z,2.60
2018-09-11T16:02:49.359Z,2.80
2018-09-11T16:05:17.224Z,3.00
2018-09-11T16:07:45.135Z,3.20
2018-09-11T16:10:13.032Z,2.50
2018-09-11T16:12:40.834Z,2.40
2018-09-11T16:15:08.788Z,2.70
2018-09-11T16:17:36.563Z,2.93
2018-09-11T16:20:05.634Z,2.23
2018-09-11T16:22:33.571Z,2.50
2018-09-11T16:25:01.327Z,2.57
2018-09-11T16:27:29.176Z,3.10
2018-09-11T16:29:57.121Z,2.90
2018-09-11T16:32:24.900Z,3.40
2018-09-11T16:34:52.752Z,3.30
2018-09-11T16:37:20.616Z,3.37
2018-09-11T16:39:48.494Z,2.67
2018-09-11T16:42:16.273Z,3.10
2018-09-11T16:44:44.076Z,3.20
2018-09-11T16:47:11.917Z,3.00
2018-09-11T16:49:39.727Z,2.77
2018-09-11T16:52:07.563Z,2.67
2018-09-11T16:54:35.436Z,3.67
2018-09-11T16:57:03.244Z,3.07
2018-09-11T16:59:31.076Z,2.70
2018-09-11T17:01:58.943Z,3.47
2018-09-11T17:04:26.886Z,2.83
2018-09-11T17:06:54.697Z,3.03
2018-09-11T17:09:22.518Z,3.33
2018-09-11T17:11:50.385Z,2.90
2018-09-11T17:14:18.272Z,2.53
2018-09-11T17:16:46.116Z,3.30
2018-09-11T17:19:17.154Z,3.00
2018-09-11T17:21:45.080Z,2.67
2018-09-11T17:24:12.829Z,2.83
2018-09-11T17:26:40.610Z,2.60
2018-09-11T17:29:08.435Z,3.00
2018-09-11T17:31:36.240Z,3.97
2018-09-11T17:34:04.098Z,2.67
2018-09-11T17:36:31.981Z,3.13
2018-09-11T17:38:59.807Z,3.30
2018-09-11T17:41:27.643Z,2.67
2018-09-11T17:43:55.472Z,3.53
2018-09-11T17:46:23.359Z,3.47
2018-09-11T17:48:51.300Z,2.50
2018-09-11T17:51:19.052Z,2.43
2018-09-11T17:53:46.933Z,3.03
2018-09-11T17:56:14.772Z,2.73
2018-09-11T17:58:42.530Z,2.30
2018-09-11T18:01:10.359Z,2.60
2018-09-11T18:03:38.231Z,2.70
2018-09-11T18:06:06.230Z,2.23
2018-09-11T18:08:34.063Z,2.77
2018-09-11T18:11:01.983Z,2.70
2018-09-11T18:13:29.780Z,2.80
2018-09-11T18:15:57.624Z,2.60
2018-09-11T18:18:25.500Z,2.60
2018-09-11T18:20:53.307Z,2.77
2018-09-11T18:23:21.204Z,2.87
2018-09-11T18:25:49.235Z,2.70
2018-09-11T18:28:17.059Z,2.50
2018-09-11T18:30:44.888Z,3.00
2018-09-11T18:33:12.931Z,3.10
2018-09-11T18:35:40.808Z,2.80
2018-09-11T18:38:08.702Z,3.37
2018-09-11T18:40:36.571Z,3.43
2018-09-11T18:43:04.434Z,2.83
2018-09-11T18:45:32.328Z,2.80
2018-09-11T18:48:00.160Z,2.93
2018-09-11T18:50:28.012Z,3.03
2018-09-11T18:52:56.405Z,2.47
2018-09-11T18:55:24.355Z,2.80
2018-09-11T18:57:53.543Z,3.40
2018-09-11T19:00:26.919Z,3.60
2018-09-11T19:02:54.867Z,3.13
2018-09-11T19:05:23.873Z,3.17
2018-09-11T19:07:51.895Z,3.20
2018-09-11T19:10:20.255Z,3.10
2018-09-11T19:12:48.042Z,3.20
2018-09-11T19:15:22.295Z,3.30
2018-09-11T19:17:57.280Z,3.83
2018-09-11T19:20:33.747Z,3.73
2018-09-11T19:23:06.398Z,2.90
2018-09-11T19:25:34.307Z,3.37
2018-09-11T19:28:02.606Z,3.33
2018-09-11T19:30:37.058Z,3.63
2018-09-11T19:33:06.013Z,3.93
2018-09-11T19:35:35.081Z,3.70
2018-09-11T19:38:03.253Z,3.47
2018-09-11T19:40:34.948Z,3.37
2018-09-11T19:43:02.841Z,3.30
2018-09-11T19:45:33.190Z,2.90
2018-09-11T19:48:01.135Z,2.80
2018-09-11T19:50:29.194Z,3.07
2018-09-11T19:52:57.031Z,3.50
2018-09-11T19:55:24.863Z,3.93
2018-09-11T19:57:54.050Z,3.83
2018-09-11T20:00:24.943Z,3.63
2018-09-11T20:02:54.106Z,4.33
2018-09-11T20:05:28.152Z,3.90
2018-09-11T20:08:02.948Z,3.60
2018-09-11T20:10:41.301Z,4.20
2018-09-11T20:13:09.326Z,3.80
2018-09-11T20:15:37.672Z,3.60
2018-09-11T20:18:07.939Z,3.47
2018-09-11T20:20:39.650Z,4.07
2018-09-11T20:23:07.609Z,3.90
2018-09-11T20:25:35.451Z,4.33
2018-09-11T20:28:03.300Z,4.43
2018-09-11T20:30:31.132Z,5.03
2018-09-11T20:32:58.940Z,4.07
2018-09-11T20:35:26.801Z,4.43
2018-09-11T20:37:54.693Z,5.60
2018-09-11T20:40:22.571Z,4.53
2018-09-11T20:42:50.386Z,4.13
2018-09-11T20:45:18.217Z,4.53
2018-09-11T20:47:46.039Z,4.57
2018-09-11T20:50:13.902Z,4.60
2018-09-11T20:52:46.328Z,4.53
2018-09-11T20:55:14.219Z,4.53
2018-09-11T20:57:42.055Z,4.83
2018-09-11T21:00:09.988Z,4.07
2018-09-11T21:02:37.817Z,4.07
2018-09-11T21:05:05.667Z,4.07
2018-09-11T21:07:33.486Z,3.73
2018-09-11T21:10:01.285Z,4.30
2018-09-11T21:12:29.063Z,3.80
2018-09-11T21:14:56.918Z,4.33
2018-09-11T21:17:24.807Z,4.50
2018-09-11T21:19:52.622Z,4.47
2018-09-11T21:22:20.479Z,4.70
2018-09-11T21:24:48.231Z,4.17
2018-09-11T21:27:16.071Z,4.97
2018-09-11T21:29:43.848Z,4.57
2018-09-11T21:32:11.629Z,4.10
2018-09-11T21:34:42.650Z,4.83
2018-09-11T21:37:10.476Z,4.80
2018-09-11T21:39:38.264Z,4.57
2018-09-11T21:42:06.460Z,4.80
2018-09-11T21:44:34.243Z,3.97
2018-09-11T21:47:02.087Z,4.37
2018-09-11T21:49:29.923Z,4.23
2018-09-11T21:51:57.907Z,4.20
2018-09-11T21:54:25.763Z,4.10
2018-09-11T21:56:53.653Z,4.83
2018-09-11T21:59:21.500Z,4.27
2018-09-11T22:01:51.724Z,4.27
2018-09-11T22:04:20.555Z,3.83
2018-09-11T22:06:48.424Z,4.50
2018-09-11T22:09:16.292Z,3.70
2018-09-11T22:11:44.093Z,3.50
2018-09-11T22:14:11.967Z,3.57
2018-09-11T22:16:39.774Z,4.00
2018-09-11T22:19:07.888Z,4.00
2018-09-11T22:21:36.353Z,4.00
2018-09-11T22:24:04.403Z,3.93
2018-09-11T22:26:32.600Z,3.43
2018-09-11T22:29:00.468Z,3.70
2018-09-11T22:31:28.589Z,4.00
2018-09-11T22:33:56.535Z,4.23
2018-09-11T22:36:24.787Z,4.33
2018-09-11T22:38:52.606Z,3.73
2018-09-11T22:41:20.532Z,3.97
2018-09-11T22:43:48.336Z,3.50
2018-09-11T22:46:16.272Z,4.20
2018-09-11T22:48:44.097Z,4.13
2018-09-11T22:51:11.908Z,4.10
2018-09-11T22:53:39.820Z,3.67
2018-09-11T22:56:07.699Z,4.07
2018-09-11T22:58:35.476Z,4.60
2018-09-11T23:01:03.337Z,4.50
2018-09-11T23:03:31.304Z,4.60
2018-09-11T23:05:59.290Z,3.97
2018-09-11T23:08:27.127Z,3.90
2018-09-11T23:10:54.937Z,3.83
2018-09-11T23:13:22.896Z,4.23
2018-09-11T23:15:50.755Z,4.10
2018-09-11T23:18:18.632Z,4.53
2018-09-11T23:20:48.265Z,4.67
2018-09-11T23:23:16.015Z,4.40
2018-09-11T23:25:47.319Z,4.23
2018-09-11T23:28:15.143Z,3.83
2018-09-11T23:30:43.088Z,3.90
2018-09-11T23:33:10.916Z,4.60
2018-09-11T23:35:38.798Z,4.10
2018-09-11T23:38:06.697Z,4.50
2018-09-11T23:40:34.524Z,4.07
2018-09-11T23:43:02.418Z,4.00
2018-09-11T23:45:30.248Z,4.77
2018-09-11T23:47:58.075Z,4.43
2018-09-11T23:50:26.036Z,4.20
2018-09-11T23:52:53.933Z,3.97
2018-09-11T23:55:21.918Z,3.93
2018-09-11T23:57:50.041Z,4.07
